Time;durP1;ratioP1;P1;durP2;ratioP2;P2;SDS_P1;SDS_P2;PMS_P1;PMS_P2;Temp;Humidity;BMP_temperature;BMP_pressure;BME280_temperature;BME280_humidity;BME280_pressure;Samples;Min_cycle;Max_cycle;Signal;HPM_P1;HPM_P2
2021/08/26 00:00:17;;;;;;;8.53;5.95;;;;;;;13.85;78.32;99757.84;1702039;84;20990;-76
2021/08/26 00:05:50;;;;;;;9.03;5.95;;;;;;;13.89;78.56;99755.05;1702123;84;21465;-76
2021/08/26 00:08:19;;;;;;;7.33;5.70;;;;;;;13.88;78.72;99748.87;1691958;84;21447;-76
2021/08/26 00:10:45;;;;;;;8.75;6.62;;;;;;;13.90;78.83;99749.98;1673867;84;21022;-76
2021/08/26 00:13:11;;;;;;;9.63;6.03;;;;;;;13.90;78.96;99748.13;1673824;85;21534;-76
2021/08/26 00:15:43;;;;;;;8.65;7.05;;;;;;;13.91;79.06;99736.89;1674076;85;21787;-76
2021/08/26 00:18:09;;;;;;;6.92;6.08;;;;;;;13.92;79.18;99731.85;1693956;84;21043;-76
2021/08/26 00:20:35;;;;;;;8.93;6.30;;;;;;;13.92;79.29;99719.79;1674139;85;21042;-76
2021/08/26 00:23:01;;;;;;;9.23;6.33;;;;;;;13.93;79.39;99724.92;1673987;85;21058;-76
2021/08/26 00:25:27;;;;;;;10.78;6.65;;;;;;;13.95;79.48;99723.39;1674007;85;21026;-76
2021/08/26 00:27:53;;;;;;;8.23;6.25;;;;;;;13.95;79.57;99726.07;1677418;84;21199;-76
2021/08/26 00:30:20;;;;;;;6.90;5.70;;;;;;;13.95;79.66;99719.37;1701800;84;21007;-76
2021/08/26 00:32:46;;;;;;;9.25;6.05;;;;;;;13.97;79.76;99714.61;1702111;84;21055;-76
2021/08/26 00:35:12;;;;;;;8.50;6.25;;;;;;;13.96;79.84;99715.66;1702031;84;21014;-76
2021/08/26 00:37:38;;;;;;;8.05;6.12;;;;;;;13.96;79.91;99712.98;1686875;84;21029;-76
2021/08/26 00:40:06;;;;;;;8.85;6.58;;;;;;;13.96;79.95;99704.94;1699723;84;21475;-76
2021/08/26 00:42:32;;;;;;;8.70;6.90;;;;;;;13.95;80.01;99697.41;1701767;84;21038;-76
2021/08/26 00:44:58;;;;;;;9.15;6.80;;;;;;;13.96;80.08;99698.24;1702022;84;21014;-76
2021/08/26 00:47:26;;;;;;;7.40;6.05;;;;;;;13.95;80.18;99693.91;1701945;84;20970;-76
2021/08/26 00:49:54;;;;;;;7.17;5.70;;;;;;;13.95;80.24;99691.22;1697853;84;21507;-76
2021/08/26 00:52:22;;;;;;;10.43;6.95;;;;;;;13.93;80.32;99683.38;1684366;84;21705;-76
2021/08/26 00:54:48;;;;;;;10.23;6.80;;;;;;;13.94;80.37;99677.50;1702067;84;21802;-76
2021/08/26 00:57:14;;;;;;;8.20;6.62;;;;;;;13.94;80.44;99675.65;1676927;84;21018;-76
2021/08/26 00:59:40;;;;;;;8.85;6.47;;;;;;;13.93;80.51;99678.55;1674191;84;21006;-76
2021/08/26 01:02:27;;;;;;;10.98;5.92;;;;;;;13.93;80.58;99673.20;1680210;84;21046;-76
2021/08/26 01:04:59;;;;;;;8.58;6.37;;;;;;;13.93;80.67;99674.53;1702075;84;21125;-76
2021/08/26 01:07:32;;;;;;;7.85;6.80;;;;;;;13.94;80.73;99670.28;1675304;84;21058;-76
2021/08/26 01:10:04;;;;;;;7.80;6.58;;;;;;;13.92;80.80;99674.22;1673835;85;20990;-76
2021/08/26 01:12:30;;;;;;;9.80;6.00;;;;;;;13.92;80.88;99664.84;1673553;85;21066;-76
2021/08/26 01:14:56;;;;;;;9.28;5.95;;;;;;;13.91;80.95;99677.92;1674089;85;21010;-76
2021/08/26 01:17:24;;;;;;;6.85;5.37;;;;;;;13.91;81.04;99666.69;1674440;84;21150;-76
2021/08/26 01:19:51;;;;;;;8.83;6.12;;;;;;;13.90;81.12;99669.05;1674050;85;21054;-76
2021/08/26 01:22:17;;;;;;;10.15;6.05;;;;;;;13.90;81.18;99670.91;1673642;85;21041;-76
2021/08/26 01:24:45;;;;;;;7.55;5.45;;;;;;;13.90;81.27;99666.88;1675843;84;21573;-77
2021/08/26 01:27:11;;;;;;;7.35;5.70;;;;;;;13.90;81.32;99664.20;1696428;84;21058;-76
2021/08/26 01:29:38;;;;;;;7.08;5.00;;;;;;;13.91;81.41;99672.56;1702242;83;21210;-77
2021/08/26 01:32:04;;;;;;;8.63;5.70;;;;;;;13.93;81.46;99668.63;1702321;84;21121;-76
2021/08/26 01:34:30;;;;;;;6.03;4.80;;;;;;;13.95;81.51;99662.56;1702189;84;21074;-76
2021/08/26 01:36:56;;;;;;;5.97;4.50;;;;;;;13.94;81.56;99657.40;1648768;84;21018;-77
2021/08/26 01:39:22;;;;;;;6.45;4.85;;;;;;;13.94;81.62;99648.84;1702169;84;21002;-77
2021/08/26 01:41:52;;;;;;;5.72;3.80;;;;;;;13.95;81.67;99644.31;1702407;84;21375;-77
2021/08/26 01:44:23;;;;;;;4.60;3.55;;;;;;;13.96;81.74;99636.07;1724278;83;21004;-77
2021/08/26 01:46:50;;;;;;;6.80;4.00;;;;;;;13.96;81.82;99625.86;1702992;83;21094;-76
2021/08/26 01:49:16;;;;;;;4.20;3.80;;;;;;;13.97;81.84;99623.47;1725175;82;21067;-76
2021/08/26 01:51:42;;;;;;;5.45;4.28;;;;;;;13.96;81.89;99627.20;1725439;83;21007;-77
2021/08/26 01:54:09;;;;;;;4.65;3.87;;;;;;;13.94;81.96;99631.93;1725375;83;21097;-77
2021/08/26 01:56:36;;;;;;;4.80;3.90;;;;;;;13.91;82.00;99636.38;1697646;83;21528;-77
2021/08/26 01:59:02;;;;;;;5.70;4.20;;;;;;;13.89;82.07;99635.78;1725477;83;20960;-77
2021/08/26 02:01:28;;;;;;;4.83;4.22;;;;;;;13.88;82.14;99640.31;1725181;83;21088;-76
2021/08/26 02:03:55;;;;;;;4.83;3.77;;;;;;;13.87;82.20;99636.48;1725611;82;20916;-76
2021/08/26 02:06:21;;;;;;;5.33;4.10;;;;;;;13.84;82.23;99635.56;1724636;83;21465;-76
2021/08/26 02:08:47;;;;;;;7.28;4.28;;;;;;;13.82;82.28;99634.97;1725290;83;21500;-77
2021/08/26 02:11:13;;;;;;;6.28;4.15;;;;;;;13.81;82.35;99634.65;1725347;83;21309;-77
2021/08/26 02:13:39;;;;;;;5.62;4.70;;;;;;;13.81;82.38;99623.92;1725133;82;21015;-77
2021/08/26 02:16:05;;;;;;;4.47;3.98;;;;;;;13.80;82.41;99622.27;1711141;82;20979;-76
2021/08/26 02:18:32;;;;;;;8.55;4.08;;;;;;;13.81;82.47;99625.27;1696165;84;21159;-76
2021/08/26 02:20:58;;;;;;;6.80;4.00;;;;;;;13.81;82.49;99621.25;1713995;83;21547;-77
2021/08/26 02:23:24;;;;;;;5.05;3.45;;;;;;;13.81;82.50;99609.19;1725374;82;21051;-76
2021/08/26 02:25:50;;;;;;;6.17;4.40;;;;;;;13.80;82.55;99620.94;1725297;83;21717;-77
2021/08/26 02:28:16;;;;;;;3.33;3.02;;;;;;;13.76;82.59;99620.53;1719857;83;21507;-77
2021/08/26 02:30:43;;;;;;;5.28;3.95;;;;;;;13.73;82.62;99618.78;1709446;83;21031;-76
2021/08/26 02:33:09;;;;;;;4.33;3.42;;;;;;;13.69;82.68;99621.57;1725225;83;20952;-77
2021/08/26 02:35:35;;;;;;;5.92;3.95;;;;;;;13.67;82.72;99618.28;1707803;82;21023;-76
2021/08/26 02:38:01;;;;;;;6.30;3.95;;;;;;;13.67;82.77;99616.95;1696711;83;21124;-76
2021/08/26 02:40:28;;;;;;;6.20;4.12;;;;;;;13.69;82.79;99614.36;1706398;83;21560;-76
2021/08/26 02:42:54;;;;;;;6.12;4.20;;;;;;;13.71;82.82;99617.67;1719462;83;21920;-76
2021/08/26 02:45:20;;;;;;;5.92;3.85;;;;;;;13.74;82.83;99611.06;1702260;84;21629;-76
2021/08/26 02:47:46;;;;;;;4.75;3.85;;;;;;;13.76;82.86;99618.36;1702271;84;21006;-76
2021/08/26 02:50:12;;;;;;;6.22;3.72;;;;;;;13.77;82.92;99621.36;1695961;84;20987;-77
2021/08/26 02:52:38;;;;;;;5.12;3.42;;;;;;;13.77;82.98;99609.30;1673846;85;20883;-77
2021/08/26 02:55:04;;;;;;;4.42;3.65;;;;;;;13.75;83.00;99614.05;1674015;85;21150;-77
2021/08/26 02:57:30;;;;;;;4.17;3.47;;;;;;;13.77;83.02;99606.62;1674033;85;21511;-77
2021/08/26 02:59:56;;;;;;;4.87;3.85;;;;;;;13.75;83.07;99607.36;1677000;84;21549;-77
2021/08/26 03:02:22;;;;;;;5.15;3.62;;;;;;;13.74;83.10;99604.36;1702202;84;21500;-77
2021/08/26 03:04:48;;;;;;;4.85;3.37;;;;;;;13.71;83.16;99603.44;1702322;84;21050;-77
2021/08/26 03:07:14;;;;;;;7.03;3.42;;;;;;;13.69;83.18;99606.83;1702295;84;21111;-77
2021/08/26 03:09:40;;;;;;;6.97;3.50;;;;;;;13.68;83.21;99603.87;1701977;84;20994;-77
2021/08/26 03:12:07;;;;;;;4.40;3.52;;;;;;;13.68;83.25;99603.87;1701963;84;21018;-77
2021/08/26 03:14:33;;;;;;;4.53;3.87;;;;;;;13.68;83.24;99603.87;1702146;83;21002;-77
2021/08/26 03:16:59;;;;;;;5.40;4.12;;;;;;;13.65;83.29;99599.73;1702302;84;21452;-77
2021/08/26 03:19:25;;;;;;;5.75;3.30;;;;;;;13.65;83.35;99598.93;1702167;84;21155;-77
2021/08/26 03:21:51;;;;;;;5.87;3.92;;;;;;;13.64;83.39;99606.14;1701250;83;21164;-77
2021/08/26 03:24:17;;;;;;;4.08;3.25;;;;;;;13.64;83.43;99598.61;1702098;84;21476;-77
2021/08/26 03:26:43;;;;;;;4.80;3.55;;;;;;;13.63;83.44;99604.48;1702010;84;20991;-77
2021/08/26 03:29:09;;;;;;;6.55;4.03;;;;;;;13.62;83.45;99600.66;1687568;84;20895;-77
2021/08/26 03:31:35;;;;;;;5.95;3.75;;;;;;;13.62;83.48;99607.36;1694329;84;21126;-77
2021/08/26 03:34:01;;;;;;;7.03;3.85;;;;;;;13.61;83.50;99603.88;1702396;84;20914;-76
2021/08/26 03:36:27;;;;;;;9.63;4.10;;;;;;;13.61;83.52;99593.17;1702175;84;21625;-76
2021/08/26 03:38:54;;;;;;;8.68;4.20;;;;;;;13.62;83.54;99600.66;1702296;84;21483;-76
2021/08/26 03:41:20;;;;;;;7.03;4.20;;;;;;;13.60;83.59;99592.85;1684681;84;21002;-76
2021/08/26 03:43:48;;;;;;;5.40;4.45;;;;;;;13.60;83.60;99592.85;1684520;84;21119;-77
2021/08/26 03:46:14;;;;;;;6.75;5.17;;;;;;;13.60;83.61;99598.72;1696202;84;21571;-77
2021/08/26 03:48:41;;;;;;;8.00;4.45;;;;;;;13.58;83.65;99602.94;1695853;84;21015;-77
2021/08/26 03:51:06;;;;;;;7.67;4.40;;;;;;;13.59;83.69;99599.74;1716599;83;21110;-77
2021/08/26 03:53:32;;;;;;;11.43;5.22;;;;;;;13.58;83.70;99598.12;1725216;82;21038;-77
2021/08/26 03:55:58;;;;;;;6.70;5.65;;;;;;;13.59;83.72;99590.36;1725359;83;21199;-77
2021/08/26 03:58:24;;;;;;;9.53;4.90;;;;;;;13.59;83.72;99596.55;1725122;82;21007;-77
2021/08/26 04:00:51;;;;;;;7.70;4.33;;;;;;;13.60;83.71;99592.02;1708260;82;21487;-77
2021/08/26 04:03:17;;;;;;;8.15;4.20;;;;;;;13.59;83.78;99595.72;1696222;84;21015;-78
2021/08/26 04:05:42;;;;;;;5.75;4.80;;;;;;;13.59;83.77;99593.05;1696073;84;21498;-78
2021/08/26 04:08:08;;;;;;;7.58;4.78;;;;;;;13.60;83.78;99593.36;1696326;84;21096;-78
2021/08/26 04:10:34;;;;;;;8.15;4.55;;;;;;;13.60;83.77;99591.51;1709222;83;20999;-77
2021/08/26 04:13:00;;;;;;;8.15;5.08;;;;;;;13.61;83.80;99591.00;1725245;82;21007;-77
2021/08/26 04:15:26;;;;;;;6.80;5.40;;;;;;;13.62;83.82;99597.98;1725017;83;20991;-77
2021/08/26 04:17:52;;;;;;;8.80;5.53;;;;;;;13.61;83.83;99591.00;1723121;82;21729;-77
2021/08/26 04:20:18;;;;;;;6.35;5.12;;;;;;;13.61;83.84;99596.36;1697675;82;21159;-78
2021/08/26 04:22:45;;;;;;;7.90;5.12;;;;;;;13.62;83.84;99596.13;1695961;84;21497;-77
2021/08/26 04:25:11;;;;;;;7.17;5.20;;;;;;;13.63;83.87;99594.28;1696314;84;20983;-77
2021/08/26 04:27:37;;;;;;;13.70;6.00;;;;;;;13.63;83.91;99591.59;1709689;83;21001;-77
2021/08/26 04:30:06;;;;;;;8.00;5.42;;;;;;;13.63;83.93;99593.77;1725378;83;21245;-77
2021/08/26 04:32:32;;;;;;;10.68;5.95;;;;;;;13.64;83.96;99588.72;1725345;83;21758;-77
2021/08/26 04:34:58;;;;;;;8.95;6.22;;;;;;;13.66;83.98;99589.84;1724452;82;20955;-77
2021/08/26 04:37:24;;;;;;;7.37;6.05;;;;;;;13.67;83.99;99591.49;1713932;82;21042;-77
2021/08/26 04:39:50;;;;;;;7.72;5.97;;;;;;;13.68;84.03;99586.45;1696249;84;20904;-77
2021/08/26 04:42:16;;;;;;;11.97;6.80;;;;;;;13.66;84.04;99585.30;1696205;84;21079;-77
2021/08/26 04:44:42;;;;;;;9.53;6.65;;;;;;;13.67;84.06;99588.30;1679658;84;21078;-77
2021/08/26 04:47:08;;;;;;;12.45;6.58;;;;;;;13.66;84.11;99588.50;1676356;84;21599;-77
2021/08/26 04:49:34;;;;;;;10.10;6.10;;;;;;;13.67;84.13;99581.61;1689204;84;20986;-77
2021/08/26 04:52:00;;;;;;;8.83;5.80;;;;;;;13.67;84.15;99578.09;1702080;84;21538;-77
2021/08/26 04:54:26;;;;;;;10.95;6.95;;;;;;;13.68;84.18;99575.73;1702276;84;21695;-77
2021/08/26 04:56:52;;;;;;;10.18;5.95;;;;;;;13.67;84.18;99580.77;1701406;84;21838;-77
2021/08/26 04:59:18;;;;;;;8.00;5.62;;;;;;;13.67;84.21;99583.45;1679526;84;21082;-77
2021/08/26 05:01:44;;;;;;;9.95;6.35;;;;;;;13.69;84.23;99580.03;1674674;84;21022;-77
2021/08/26 05:04:10;;;;;;;10.28;6.58;;;;;;;13.69;84.26;99572.00;1676601;84;20915;-78
2021/08/26 05:06:36;;;;;;;10.20;7.22;;;;;;;13.72;84.26;99578.30;1676190;84;21494;-77
2021/08/26 05:09:02;;;;;;;10.90;6.67;;;;;;;13.74;84.28;99575.71;1688016;84;21830;-77
2021/08/26 05:11:28;;;;;;;11.83;7.40;;;;;;;13.78;84.26;99578.80;1701333;84;21031;-78
2021/08/26 05:13:54;;;;;;;10.50;7.45;;;;;;;13.77;84.26;99576.63;1679428;84;21015;-77
2021/08/26 05:16:20;;;;;;;9.05;6.97;;;;;;;13.77;84.27;99575.28;1681869;84;20995;-77
2021/08/26 05:18:46;;;;;;;9.60;7.83;;;;;;;13.77;84.27;99567.76;1683060;84;21101;-77
2021/08/26 05:21:11;;;;;;;8.50;6.72;;;;;;;13.75;84.28;99569.84;1676510;84;21191;-78
2021/08/26 05:23:38;;;;;;;12.37;7.55;;;;;;;13.78;84.28;99566.73;1683848;84;21436;-78
2021/08/26 05:26:04;;;;;;;12.58;7.17;;;;;;;13.77;84.27;99569.92;1680718;84;21617;-78
2021/08/26 05:28:30;;;;;;;9.65;6.80;;;;;;;13.80;84.29;99571.35;1675807;84;21010;-78
2021/08/26 05:30:56;;;;;;;10.78;7.70;;;;;;;13.81;84.28;99564.97;1701896;84;21018;-78
2021/08/26 05:33:22;;;;;;;8.90;7.17;;;;;;;13.82;84.30;99562.60;1698290;84;21165;-77
2021/08/26 05:35:48;;;;;;;8.58;6.65;;;;;;;13.83;84.29;99564.23;1673870;85;21066;-78
2021/08/26 05:38:14;;;;;;;12.37;7.72;;;;;;;13.82;84.30;99562.09;1673998;85;21098;-78
2021/08/26 05:40:40;;;;;;;10.95;7.58;;;;;;;13.82;84.27;99564.77;1674038;85;20971;-78
2021/08/26 05:43:06;;;;;;;13.32;7.58;;;;;;;13.83;84.31;99565.05;1674108;85;21498;-78
2021/08/26 05:45:32;;;;;;;14.00;8.18;;;;;;;13.85;84.30;99563.00;1673701;84;21969;-78
2021/08/26 05:47:58;;;;;;;10.15;7.30;;;;;;;13.91;84.32;99559.98;1674517;84;20991;-78
2021/08/26 05:50:24;;;;;;;9.40;7.70;;;;;;;13.95;84.32;99563.89;1674054;85;21064;-78
2021/08/26 05:52:51;;;;;;;20.50;7.92;;;;;;;13.97;84.33;99552.42;1694010;84;20994;-78
2021/08/26 05:55:18;;;;;;;10.60;8.48;;;;;;;14.01;84.34;99553.65;1674220;85;21045;-78
2021/08/26 05:57:45;;;;;;;14.13;9.60;;;;;;;14.11;84.34;99549.20;1680164;84;21186;-79
2021/08/26 06:00:12;;;;;;;12.70;8.85;;;;;;;14.19;84.37;99549.75;1692071;82;21016;-79
2021/08/26 06:02:39;;;;;;;11.20;8.10;;;;;;;14.26;84.34;99539.81;1706543;82;21059;-79
2021/08/26 06:05:06;;;;;;;13.83;7.75;;;;;;;14.33;84.33;99543.28;1702941;82;21104;-79
2021/08/26 06:07:32;;;;;;;12.30;7.25;;;;;;;14.40;84.36;99547.30;1694435;82;21086;-79
2021/08/26 06:09:57;;;;;;;12.82;7.85;;;;;;;14.44;84.34;99544.49;1692023;82;21048;-79
2021/08/26 06:12:23;;;;;;;12.07;7.47;;;;;;;14.46;84.36;99551.28;1690901;82;21058;-79
2021/08/26 06:14:49;;;;;;;7.45;6.17;;;;;;;14.55;84.34;99545.67;1699920;82;21002;-79
2021/08/26 06:17:15;;;;;;;11.83;7.37;;;;;;;14.55;84.32;99553.72;1711198;82;21079;-79
2021/08/26 06:19:41;;;;;;;12.43;7.05;;;;;;;14.49;84.30;99549.50;1694916;82;21036;-79
2021/08/26 06:22:07;;;;;;;11.35;7.65;;;;;;;14.50;84.30;99555.18;1713231;82;21114;-79
2021/08/26 06:24:33;;;;;;;12.30;7.90;;;;;;;14.54;84.33;99557.42;1694898;82;20926;-79
2021/08/26 06:27:01;;;;;;;15.93;8.48;;;;;;;14.58;84.30;99556.79;1705922;82;21521;-79
2021/08/26 06:29:28;;;;;;;11.85;7.67;;;;;;;14.58;84.06;99558.64;1696728;82;21053;-79
2021/08/26 06:31:54;;;;;;;10.38;6.42;;;;;;;14.50;84.22;99564.57;1688866;82;21505;-79
2021/08/26 06:34:20;;;;;;;10.98;6.85;;;;;;;14.42;84.22;99570.21;1709822;82;21823;-78
2021/08/26 06:36:46;;;;;;;10.10;6.47;;;;;;;14.38;84.20;99575.70;1696947;82;21488;-78
2021/08/26 06:39:12;;;;;;;10.13;6.85;;;;;;;14.37;84.21;99582.09;1709098;82;21047;-78
2021/08/26 06:41:38;;;;;;;8.43;6.30;;;;;;;14.41;84.19;99580.63;1725876;82;20972;-78
2021/08/26 06:44:04;;;;;;;11.30;5.97;;;;;;;14.43;84.18;99583.91;1689437;82;21506;-78
2021/08/26 06:46:30;;;;;;;9.05;5.80;;;;;;;14.45;84.18;99584.53;1694213;84;21692;-78
2021/08/26 06:48:56;;;;;;;9.10;5.40;;;;;;;14.42;84.15;99590.33;1689937;84;21068;-79
2021/08/26 06:51:22;;;;;;;9.28;5.67;;;;;;;14.38;84.13;99589.11;1694278;84;21016;-79
2021/08/26 06:53:48;;;;;;;9.08;5.85;;;;;;;14.34;84.13;99587.06;1688941;82;20945;-79
2021/08/26 06:56:15;;;;;;;9.33;5.72;;;;;;;14.32;84.13;99587.23;1699285;84;21046;-79
2021/08/26 06:58:42;;;;;;;10.15;5.78;;;;;;;14.35;84.13;99592.23;1687834;84;21174;-79
2021/08/26 07:01:08;;;;;;;8.53;6.37;;;;;;;14.34;84.11;99587.89;1695193;84;21061;-79
2021/08/26 07:03:34;;;;;;;9.40;5.60;;;;;;;14.38;84.10;99591.80;1695588;84;21035;-79
2021/08/26 07:06:00;;;;;;;8.85;5.75;;;;;;;14.41;84.10;99587.84;1704391;84;20975;-79
2021/08/26 07:08:26;;;;;;;8.75;5.90;;;;;;;14.42;84.08;99590.33;1685689;84;21096;-79
2021/08/26 07:10:52;;;;;;;8.25;6.30;;;;;;;14.44;84.09;99585.56;1687471;84;21522;-79
2021/08/26 07:13:18;;;;;;;8.43;5.40;;;;;;;14.45;84.08;99589.91;1691562;84;21028;-79
2021/08/26 07:15:44;;;;;;;7.78;5.45;;;;;;;14.45;84.04;99586.39;1689999;84;21073;-79
2021/08/26 07:18:11;;;;;;;11.78;8.40;;;;;;;14.43;84.06;99594.64;1689856;84;21068;-79
2021/08/26 07:20:37;;;;;;;10.85;6.10;;;;;;;14.43;84.05;99596.49;1697057;84;21020;-79
2021/08/26 07:23:03;;;;;;;8.35;5.45;;;;;;;14.45;84.07;99591.75;1689125;84;21046;-79
2021/08/26 07:25:29;;;;;;;9.15;5.87;;;;;;;14.49;84.07;99585.72;1695094;84;21538;-79
2021/08/26 07:27:55;;;;;;;6.90;5.12;;;;;;;14.55;84.06;99587.26;1702027;84;21554;-79
2021/08/26 07:30:21;;;;;;;9.23;5.65;;;;;;;14.61;84.05;99589.07;1698259;84;21013;-76
2021/08/26 07:32:47;;;;;;;7.92;5.17;;;;;;;14.69;84.05;99582.11;1691209;84;21150;-77
2021/08/26 07:35:13;;;;;;;10.03;5.50;;;;;;;14.78;84.04;99583.48;1693844;84;21182;-76
2021/08/26 07:37:39;;;;;;;10.03;5.42;;;;;;;14.85;84.02;99584.27;1698479;84;21104;-76
2021/08/26 07:40:06;;;;;;;5.83;4.83;;;;;;;15.00;84.03;99585.61;1683373;84;21015;-77
2021/08/26 07:42:32;;;;;;;9.63;4.87;;;;;;;15.25;83.81;99577.55;1698508;84;21062;-76
2021/08/26 07:45:04;;;;;;;9.75;5.10;;;;;;;15.25;83.81;99577.55;1691135;81;21053;-76
2021/08/26 07:47:30;;;;;;;10.85;4.95;;;;;;;15.47;83.98;99577.46;1708494;81;21123;-76
2021/08/26 07:49:57;;;;;;;5.95;4.80;;;;;;;15.81;83.88;99573.92;1727264;81;21042;-76
2021/08/26 07:52:23;;;;;;;10.15;4.17;;;;;;;16.20;83.87;99578.84;1733490;81;21437;-77
2021/08/26 07:54:49;;;;;;;6.70;4.28;;;;;;;16.68;83.78;99581.52;1686976;83;20999;-77
2021/08/26 07:57:15;;;;;;;6.12;3.80;;;;;;;17.07;83.55;99576.05;1697835;84;21066;-76
2021/08/26 07:59:41;;;;;;;4.75;3.45;;;;;;;17.16;83.28;99569.81;1687509;83;21176;-77
2021/08/26 08:02:07;;;;;;;6.20;4.05;;;;;;;17.07;83.08;99569.31;1681311;84;21028;-77
2021/08/26 08:04:33;;;;;;;7.15;4.20;;;;;;;16.92;82.84;99574.34;1690642;82;21018;-77
2021/08/26 08:07:00;;;;;;;9.80;4.12;;;;;;;16.86;82.68;99570.69;1692608;84;21022;-76
2021/08/26 08:09:26;;;;;;;6.95;3.80;;;;;;;16.84;82.50;99567.94;1681837;83;21562;-81
2021/08/26 08:11:52;;;;;;;7.67;3.92;;;;;;;16.80;82.34;99564.05;1686644;84;22075;-79
2021/08/26 08:14:18;;;;;;;7.12;4.28;;;;;;;16.77;82.15;99560.48;1688084;84;21049;-79
2021/08/26 08:16:44;;;;;;;5.47;3.92;;;;;;;16.74;82.02;99559.59;1723113;81;21047;-79
2021/08/26 08:19:10;;;;;;;7.80;3.70;;;;;;;16.67;81.85;99563.74;1686133;84;21316;-79
2021/08/26 08:21:36;;;;;;;6.42;4.22;;;;;;;16.63;81.68;99566.59;1693970;84;21134;-78
2021/08/26 08:24:03;;;;;;;7.42;4.05;;;;;;;16.68;81.56;99568.58;1695189;82;21165;-78
2021/08/26 08:26:29;;;;;;;7.87;4.33;;;;;;;16.80;81.43;99565.41;1692323;84;21052;-79
2021/08/26 08:28:55;;;;;;;8.18;4.10;;;;;;;16.92;81.33;99573.00;1691621;84;21479;-79
2021/08/26 08:31:21;;;;;;;7.67;4.00;;;;;;;16.98;81.20;99566.16;1696697;82;21039;-79
2021/08/26 08:33:47;;;;;;;7.83;4.28;;;;;;;16.88;81.01;99570.47;1697125;84;21046;-79
2021/08/26 08:36:14;;;;;;;5.20;4.30;;;;;;;16.63;80.85;99564.42;1688920;84;21167;-79
2021/08/26 08:38:40;;;;;;;5.55;4.10;;;;;;;16.46;80.80;99565.05;1698651;84;21041;-80
2021/08/26 08:41:06;;;;;;;9.13;4.58;;;;;;;16.41;80.72;99567.59;1690135;82;21033;-79
2021/08/26 08:43:36;;;;;;;7.58;4.28;;;;;;;16.28;80.66;99557.53;1694520;84;21086;-79
2021/08/26 08:46:04;;;;;;;9.53;5.22;;;;;;;16.15;80.58;99559.84;1699459;82;21034;-75
2021/08/26 08:48:31;;;;;;;8.90;4.58;;;;;;;16.11;80.55;99567.28;1691437;84;21738;-82
2021/08/26 08:50:57;;;;;;;8.20;5.00;;;;;;;16.18;80.54;99568.84;1698170;84;21080;-81
2021/08/26 08:53:23;;;;;;;8.93;5.53;;;;;;;16.30;80.53;99560.28;1700433;82;21080;-81
2021/08/26 08:55:49;;;;;;;6.90;5.17;;;;;;;16.43;80.49;99565.48;1700752;84;20973;-81
2021/08/26 08:58:15;;;;;;;9.98;4.35;;;;;;;16.50;80.43;99567.55;1697352;84;21023;-81
2021/08/26 09:00:41;;;;;;;10.93;5.03;;;;;;;16.42;80.32;99562.52;1673951;85;21054;-81
2021/08/26 09:03:07;;;;;;;13.55;4.58;;;;;;;16.33;80.30;99561.17;1673090;84;21071;-81
2021/08/26 09:05:55;;;;;;;6.83;4.67;;;;;;;16.25;80.25;99565.55;1674325;84;21098;-81
2021/08/26 09:08:23;;;;;;;10.55;4.47;;;;;;;16.26;80.23;99566.34;1698614;82;21117;-81
2021/08/26 09:10:53;;;;;;;7.83;4.42;;;;;;;16.33;80.20;99565.20;1671531;84;21028;-81
2021/08/26 09:13:32;;;;;;;;;;;;;;;16.36;80.14;99565.30;1678190;84;21207;-81
2021/08/26 09:15:58;;;;;;;8.00;4.03;;;;;;;16.40;80.05;99563.24;1694131;84;20153;-81
2021/08/26 09:18:24;;;;;;;9.15;4.08;;;;;;;16.40;79.99;99569.14;1676251;84;21636;-81
2021/08/26 09:21:05;;;;;;;7.87;4.28;;;;;;;16.34;79.93;99566.03;1674489;84;21475;-81
2021/08/26 09:23:52;;;;;;;10.75;4.03;;;;;;;16.37;79.90;99566.40;1701095;84;21025;-80
2021/08/26 09:26:20;;;;;;;7.50;4.17;;;;;;;16.55;79.84;99568.74;1704235;84;21258;-81
2021/08/26 09:28:47;;;;;;;7.17;4.03;;;;;;;16.63;79.72;99569.80;1699364;84;21024;-81
2021/08/26 09:31:22;;;;;;;8.68;4.58;;;;;;;16.74;79.61;99575.23;1680451;82;21053;-81
2021/08/26 09:33:58;;;;;;;9.80;4.72;;;;;;;16.82;79.48;99564.11;1687797;84;21533;-80
2021/08/26 09:36:48;;;;;;;9.70;4.35;;;;;;;16.94;79.37;99563.62;1686529;84;21665;-81
2021/08/26 09:39:22;;;;;;;9.63;4.90;;;;;;;17.05;79.21;99569.26;1703190;83;21147;-81
2021/08/26 09:41:54;;;;;;;7.83;4.92;;;;;;;17.04;79.00;99558.18;1675658;84;21540;-81
2021/08/26 09:44:36;;;;;;;8.15;4.80;;;;;;;16.98;78.87;99561.29;1681540;83;21128;-81
2021/08/26 09:47:05;;;;;;;11.40;4.80;;;;;;;16.92;78.83;99556.84;1687235;84;21486;-81
2021/08/26 09:49:39;;;;;;;10.63;5.92;;;;;;;17.30;78.98;99546.97;1682472;85;21055;-81
2021/08/26 09:52:13;;;;;;;11.10;4.78;;;;;;;17.75;78.87;99543.16;1683832;84;21616;-81
2021/08/26 09:54:48;;;;;;;10.28;5.28;;;;;;;18.04;78.64;99544.85;1687006;84;21004;-81
2021/08/26 09:57:30;;;;;;;6.97;4.70;;;;;;;18.47;78.51;99542.44;1674725;85;21038;-81
2021/08/26 10:00:00;;;;;;;6.30;4.33;;;;;;;18.73;78.10;99535.66;1683105;84;21024;-81
2021/08/26 10:02:27;;;;;;;6.05;3.75;;;;;;;18.83;77.75;99535.00;1678795;83;21055;-81
2021/08/26 10:04:54;;;;;;;5.90;2.55;;;;;;;18.77;77.45;99552.19;1684675;84;21159;-81
2021/08/26 10:07:20;;;;;;;6.20;3.25;;;;;;;18.34;76.96;99553.53;1690375;84;21021;-81
2021/08/26 10:09:46;;;;;;;8.75;2.98;;;;;;;17.84;76.69;99557.90;1683448;83;21486;-80
2021/08/26 10:12:14;;;;;;;4.00;2.75;;;;;;;17.61;76.57;99556.59;1701828;84;21012;-81
2021/08/26 10:14:44;;;;;;;6.55;3.30;;;;;;;17.56;76.53;99556.47;1676433;84;20995;-81
2021/08/26 10:17:10;;;;;;;7.65;3.02;;;;;;;17.61;76.36;99562.81;1681166;84;21542;-81
2021/08/26 10:19:37;;;;;;;4.62;2.40;;;;;;;17.75;76.25;99560.68;1672090;84;21057;-81
2021/08/26 10:22:03;;;;;;;5.95;2.75;;;;;;;18.17;76.10;99562.11;1639147;86;21030;-80
2021/08/26 10:24:29;;;;;;;7.05;2.58;;;;;;;18.46;75.79;99548.92;1662546;86;21051;-81
2021/08/26 10:27:00;;;;;;;3.92;2.00;;;;;;;18.74;75.53;99551.33;1664678;84;21161;-80
2021/08/26 10:29:26;;;;;;;6.58;2.50;;;;;;;19.01;75.18;99550.16;1668514;83;21941;-81
2021/08/26 10:31:58;;;;;;;5.08;1.95;;;;;;;19.22;74.90;99535.37;1681457;84;20979;-81
2021/08/26 10:34:27;;;;;;;2.77;1.80;;;;;;;19.39;74.48;99533.47;1690219;83;21036;-80
2021/08/26 10:37:01;;;;;;;4.78;1.90;;;;;;;19.33;73.96;99538.52;1690427;84;21554;-81
2021/08/26 10:39:37;;;;;;;4.17;2.12;;;;;;;19.08;73.57;99542.70;1705448;84;21078;-80
2021/08/26 10:42:28;;;;;;;4.87;2.67;;;;;;;18.68;73.11;99553.66;1705879;82;21147;-80
2021/08/26 10:45:07;;;;;;;5.30;1.27;;;;;;;18.35;72.88;99571.38;1706058;83;20960;-80
2021/08/26 10:47:54;;;;;;;3.92;0.68;;;;;;;17.94;72.53;99575.12;1705757;84;20987;-81
2021/08/26 10:50:32;;;;;;;2.22;0.70;;;;;;;17.19;71.70;99580.94;1706100;83;21053;-81
2021/08/26 10:53:26;;;;;;;2.90;1.10;;;;;;;16.58;71.31;99601.96;1705919;83;21521;-81
2021/08/26 10:55:53;;;;;;;3.87;1.50;;;;;;;16.11;71.08;99611.14;1706027;82;21123;-80
2021/08/26 10:58:28;;;;;;;4.67;1.20;;;;;;;15.69;70.92;99614.16;1706181;83;21105;-80
2021/08/26 11:01:02;;;;;;;2.15;1.12;;;;;;;15.47;70.99;99608.36;1705961;83;21051;-80
2021/08/26 11:03:45;;;;;;;2.50;1.27;;;;;;;15.30;71.06;99608.62;1706225;83;21063;-80
2021/08/26 11:06:28;;;;;;;3.45;1.27;;;;;;;15.32;71.25;99607.87;1706131;83;20967;-80
2021/08/26 11:08:56;;;;;;;3.50;1.52;;;;;;;15.62;71.47;99604.54;1705777;83;21480;-80
2021/08/26 11:11:30;;;;;;;3.85;2.08;;;;;;;15.83;71.55;99605.45;1706158;84;20999;-80
2021/08/26 11:14:08;;;;;;;6.10;1.98;;;;;;;16.00;71.68;99598.44;1705923;84;21014;-80
2021/08/26 11:16:49;;;;;;;5.12;1.50;;;;;;;16.22;71.87;99600.15;1705984;83;21350;-80
2021/08/26 11:19:26;;;;;;;3.62;1.10;;;;;;;16.43;71.99;99592.39;1706032;83;21559;-80
2021/08/26 11:21:57;;;;;;;3.12;1.90;;;;;;;16.59;72.08;99592.84;1705955;83;21111;-80
2021/08/26 11:24:31;;;;;;;3.90;1.90;;;;;;;16.67;72.22;99592.53;1706237;83;21011;-80
2021/08/26 11:27:05;;;;;;;3.33;1.60;;;;;;;16.92;72.36;99589.16;1703777;83;21106;-80
2021/08/26 11:29:32;;;;;;;2.72;1.42;;;;;;;17.23;72.38;99586.69;1679312;83;21547;-80
2021/08/26 11:32:01;;;;;;;2.92;1.40;;;;;;;17.37;72.31;99587.58;1682884;84;20982;-80
2021/08/26 11:34:37;;;;;;;2.90;1.35;;;;;;;17.54;72.38;99589.56;1665414;84;21974;-85
2021/08/26 11:37:31;;;;;;;2.70;1.55;;;;;;;17.63;72.32;99592.22;1671990;85;21469;-84